createdAt,value
2022-10-19T00:02:12.303Z,101155.34
2022-10-19T00:04:38.984Z,101148.28
2022-10-19T00:07:05.571Z,101156.25
2022-10-19T00:09:32.145Z,101154.47
2022-10-19T00:11:58.717Z,101143.03
2022-10-19T00:14:25.384Z,101143.03
2022-10-19T00:16:52.329Z,101143.88
2022-10-19T00:19:20.890Z,101139.44
2022-10-19T00:21:47.737Z,101130.69
2022-10-19T00:24:14.454Z,101129.84
2022-10-19T00:26:41.137Z,101128.91
2022-10-19T00:29:07.895Z,101122.75
2022-10-19T00:31:34.571Z,101118.37
2022-10-19T00:34:01.251Z,101121.87
2022-10-19T00:36:30.472Z,101123.66
2022-10-19T00:38:57.759Z,101116.59
2022-10-19T00:41:25.974Z,101118.37
2022-10-19T00:43:52.387Z,101100.75
2022-10-19T00:46:18.945Z,101095.44
2022-10-19T00:48:50.477Z,101100.75
2022-10-19T00:51:17.025Z,101103.44
2022-10-19T00:53:43.596Z,101099.00
2022-10-19T00:56:13.035Z,101099.00
2022-10-19T00:58:42.121Z,101089.31
2022-10-19T01:01:09.227Z,101086.66
2022-10-19T01:03:37.951Z,101090.19
2022-10-19T01:06:04.768Z,101086.66
2022-10-19T01:08:31.386Z,101071.69
2022-10-19T01:11:39.747Z,101075.25
2022-10-19T01:14:19.368Z,101074.34
2022-10-19T01:17:08.075Z,101064.66
2022-10-19T01:19:53.488Z,101073.47
2022-10-19T01:22:20.375Z,101062.88
2022-10-19T01:25:11.425Z,101060.25
2022-10-19T01:27:44.554Z,101054.06
2022-10-19T01:30:47.605Z,101061.19
2022-10-19T01:33:26.222Z,101054.97
2022-10-19T01:36:11.935Z,101054.09
2022-10-19T01:38:44.835Z,101045.28
2022-10-19T01:41:12.660Z,101040.91
2022-10-19T01:44:19.084Z,101040.06
2022-10-19T01:46:49.798Z,101038.25
2022-10-19T01:49:22.147Z,101035.62
2022-10-19T01:52:00.678Z,101039.19
2022-10-19T01:54:30.647Z,101040.06
2022-10-19T01:56:58.591Z,101042.69
2022-10-19T01:59:25.192Z,101035.69
2022-10-19T02:01:52.609Z,101033.94
2022-10-19T02:04:20.002Z,101037.47
2022-10-19T02:06:46.584Z,101040.13
2022-10-19T02:09:18.247Z,101033.94
2022-10-19T02:11:49.606Z,101035.72
2022-10-19T02:14:18.658Z,101024.25
2022-10-19T02:16:48.467Z,101033.06
2022-10-19T02:19:15.091Z,101030.41
2022-10-19T02:21:41.770Z,101037.50
2022-10-19T02:24:08.341Z,101038.34
2022-10-19T02:26:34.899Z,101034.84
2022-10-19T02:29:01.537Z,101029.53
2022-10-19T02:31:28.145Z,101039.28
2022-10-19T02:33:54.712Z,101034.03
2022-10-19T02:36:22.075Z,101037.56
2022-10-19T02:38:48.658Z,101038.41
2022-10-19T02:41:18.696Z,101035.78
2022-10-19T02:43:51.399Z,101031.47
2022-10-19T02:46:46.415Z,101028.81
2022-10-19T02:49:13.016Z,101032.31
2022-10-19T02:51:41.423Z,101031.47
2022-10-19T02:54:08.410Z,101028.81
2022-10-19T02:56:38.000Z,101031.47
2022-10-19T02:59:04.660Z,101022.63
2022-10-19T03:01:31.279Z,101022.63
2022-10-19T03:03:57.928Z,101035.00
2022-10-19T03:06:24.527Z,101030.63
2022-10-19T03:08:51.107Z,101033.28
2022-10-19T03:11:17.684Z,101033.28
2022-10-19T03:13:44.461Z,101035.91
2022-10-19T03:16:11.729Z,101042.09
2022-10-19T03:18:38.296Z,101034.13
2022-10-19T03:21:09.957Z,101041.22
2022-10-19T03:23:36.762Z,101039.50
2022-10-19T03:26:04.334Z,101040.37
2022-10-19T03:28:32.338Z,101030.63
2022-10-19T03:30:58.930Z,101028.03
2022-10-19T03:36:18.062Z,101027.19
2022-10-19T03:38:44.680Z,101029.75
2022-10-19T03:41:11.371Z,101021.03
2022-10-19T03:43:37.957Z,101028.06
2022-10-19T03:46:04.615Z,101025.41
2022-10-19T03:48:31.150Z,101032.47
2022-10-19T03:51:20.160Z,101033.34
2022-10-19T03:53:47.073Z,101040.37
2022-10-19T03:56:15.210Z,101041.13
2022-10-19T03:58:42.186Z,101032.03
2022-10-19T04:01:11.079Z,101015.94
2022-10-19T04:03:37.757Z,101027.13
2022-10-19T04:06:05.813Z,101029.47
2022-10-19T04:08:32.535Z,101035.28
2022-10-19T04:11:06.416Z,101023.44
2022-10-19T04:13:33.142Z,101025.69
2022-10-19T04:15:59.875Z,101019.94
2022-10-19T04:18:26.448Z,101020.47
2022-10-19T04:21:00.351Z,101028.06
2022-10-19T04:23:27.590Z,101031.28
2022-10-19T04:26:00.230Z,101032.81
2022-10-19T04:28:26.944Z,101029.13
2022-10-19T04:30:53.535Z,101023.66
2022-10-19T04:33:20.130Z,101023.56
2022-10-19T04:35:46.719Z,101020.81
2022-10-19T04:38:13.438Z,101023.41
2022-10-19T04:40:39.995Z,101030.44
2022-10-19T04:43:06.551Z,101025.12
2022-10-19T04:45:35.398Z,101025.97
2022-10-19T04:48:02.323Z,101024.25
2022-10-19T04:50:28.911Z,101021.59
2022-10-19T04:52:55.462Z,101026.13
2022-10-19T04:55:22.005Z,101034.09
2022-10-19T04:57:48.557Z,101025.28
2022-10-19T05:00:15.481Z,101031.59
2022-10-19T05:02:45.551Z,101029.00
2022-10-19T05:05:13.250Z,101024.63
2022-10-19T05:07:39.955Z,101015.88
2022-10-19T05:10:07.244Z,101017.66
2022-10-19T05:12:35.343Z,101024.81
2022-10-19T05:15:02.131Z,101035.47
2022-10-19T05:17:32.332Z,101044.44
2022-10-19T05:19:59.134Z,101040.06
2022-10-19T05:22:28.387Z,101047.16
2022-10-19T05:24:58.050Z,101040.97
2022-10-19T05:27:24.943Z,101041.97
2022-10-19T05:29:51.504Z,101053.72
2022-10-19T05:32:18.207Z,101057.47
2022-10-19T05:34:44.746Z,101058.56
2022-10-19T05:37:11.347Z,101056.91
2022-10-19T05:39:37.951Z,101063.25
2022-10-19T05:42:04.516Z,101066.94
2022-10-19T05:44:31.141Z,101067.94
2022-10-19T05:46:57.725Z,101074.28
2022-10-19T05:49:24.365Z,101077.94
2022-10-19T05:51:51.046Z,101081.53
2022-10-19T05:54:17.625Z,101075.44
2022-10-19T05:56:44.556Z,101074.53
2022-10-19T05:59:16.476Z,101075.47
2022-10-19T06:01:43.087Z,101085.22
2022-10-19T06:04:10.842Z,101087.87
2022-10-19T06:06:37.466Z,101094.09
2022-10-19T06:09:04.085Z,101095.91
2022-10-19T06:11:33.894Z,101090.75
2022-10-19T06:14:02.365Z,101101.34
2022-10-19T06:16:29.514Z,101099.62
2022-10-19T06:18:56.141Z,101102.44
2022-10-19T06:21:24.236Z,101105.19
2022-10-19T06:23:51.861Z,101116.72
2022-10-19T06:26:18.602Z,101116.75
2022-10-19T06:28:45.258Z,101114.16
2022-10-19T06:31:12.756Z,101116.00
2022-10-19T06:33:39.755Z,101121.34
2022-10-19T06:36:19.784Z,101120.44
2022-10-19T06:38:46.583Z,101126.62
2022-10-19T06:41:13.337Z,101130.91
2022-10-19T06:43:40.339Z,101137.94
2022-10-19T06:46:12.087Z,101135.19
2022-10-19T06:48:40.643Z,101129.03
2022-10-19T06:51:07.788Z,101128.09
2022-10-19T06:53:35.485Z,101139.56
2022-10-19T06:56:02.800Z,101143.88
2022-10-19T06:58:29.444Z,101140.28
2022-10-19T07:00:57.329Z,101146.34
2022-10-19T07:03:24.944Z,101151.78
2022-10-19T07:05:55.564Z,101152.66
2022-10-19T07:08:25.221Z,101150.81
2022-10-19T07:10:56.755Z,101155.19
2022-10-19T07:13:23.529Z,101162.41
2022-10-19T07:15:50.349Z,101164.16
2022-10-19T07:18:17.002Z,101165.06
2022-10-19T07:20:43.595Z,101173.03
2022-10-19T07:23:10.140Z,101175.75
2022-10-19T07:25:36.692Z,101183.69
2022-10-19T07:28:03.430Z,101176.53
2022-10-19T07:30:29.991Z,101192.34
2022-10-19T07:32:56.735Z,101189.66
2022-10-19T07:35:25.255Z,101185.22
2022-10-19T07:37:51.913Z,101194.00
2022-10-19T07:40:21.384Z,101190.41
2022-10-19T07:42:47.950Z,101193.84
2022-10-19T07:45:14.571Z,101199.03
2022-10-19T07:47:41.167Z,101192.81
2022-10-19T07:50:08.172Z,101191.91
2022-10-19T07:52:36.851Z,101180.38
2022-10-19T07:55:03.958Z,101188.16
2022-10-19T07:57:30.563Z,101185.44
2022-10-19T07:59:57.233Z,101188.94
2022-10-19T08:02:30.781Z,101181.75
2022-10-19T08:05:10.519Z,101186.13
2022-10-19T08:07:38.267Z,101178.09
2022-10-19T08:10:05.399Z,101184.25
2022-10-19T08:12:32.317Z,101178.88
2022-10-19T08:14:59.055Z,101177.88
2022-10-19T08:17:25.683Z,101180.44
2022-10-19T08:19:52.269Z,101172.37
2022-10-19T08:22:18.892Z,101172.41
2022-10-19T08:24:45.467Z,101172.41
2022-10-19T08:27:12.259Z,101184.72
2022-10-19T08:29:38.839Z,101182.94
2022-10-19T08:32:05.495Z,101182.13
2022-10-19T08:34:33.543Z,101176.69
2022-10-19T08:37:06.766Z,101172.16
2022-10-19T08:39:41.559Z,101181.84
2022-10-19T08:42:23.498Z,101182.75
2022-10-19T08:44:59.962Z,101178.25
2022-10-19T08:47:50.663Z,101180.91
2022-10-19T08:50:41.076Z,101186.13
2022-10-19T08:53:11.673Z,101186.88
2022-10-19T08:55:41.096Z,101183.38
2022-10-19T08:58:20.550Z,101189.41
2022-10-19T09:00:54.865Z,101185.87
2022-10-19T09:03:55.903Z,101185.03
2022-10-19T09:06:23.235Z,101183.38
2022-10-19T09:08:53.809Z,101180.72
2022-10-19T09:11:37.505Z,101173.63
2022-10-19T09:14:36.422Z,101177.19
2022-10-19T09:17:04.528Z,101185.87
2022-10-19T09:19:32.078Z,101179.69
2022-10-19T09:22:02.386Z,101174.38
2022-10-19T09:24:37.768Z,101171.56
2022-10-19T09:27:06.399Z,101175.09
2022-10-19T09:29:48.100Z,101171.56
2022-10-19T09:32:17.311Z,101181.31
2022-10-19T09:34:45.882Z,101179.63
2022-10-19T09:37:21.222Z,101168.25
2022-10-19T09:39:55.717Z,101180.56
2022-10-19T09:42:33.880Z,101182.44
2022-10-19T09:45:12.463Z,101186.81
2022-10-19T09:47:42.733Z,101193.06
2022-10-19T09:50:09.284Z,101194.88
2022-10-19T09:52:39.372Z,101187.97
2022-10-19T09:55:14.943Z,101187.06
2022-10-19T09:57:57.679Z,101181.84
2022-10-19T10:00:25.710Z,101173.88
2022-10-19T10:02:55.565Z,101173.94
2022-10-19T10:05:32.494Z,101179.31
2022-10-19T10:07:59.067Z,101170.41
2022-10-19T10:10:37.118Z,101162.47
2022-10-19T10:13:03.741Z,101166.06
2022-10-19T10:15:44.006Z,101168.78
2022-10-19T10:18:18.833Z,101156.31
2022-10-19T10:20:58.832Z,101157.19
2022-10-19T10:23:27.098Z,101156.22
2022-10-19T10:25:57.376Z,101148.28
2022-10-19T10:28:25.552Z,101145.53
2022-10-19T10:31:05.312Z,101138.34
2022-10-19T10:33:44.370Z,101135.75
2022-10-19T10:36:12.075Z,101133.16
2022-10-19T10:38:46.205Z,101125.19
2022-10-19T10:41:14.836Z,101123.47
2022-10-19T10:44:00.990Z,101123.53
2022-10-19T10:46:46.283Z,101127.03
2022-10-19T10:49:49.680Z,101121.72
2022-10-19T10:52:16.495Z,101123.53
2022-10-19T10:55:09.241Z,101119.09
2022-10-19T10:57:38.435Z,101119.00
2022-10-19T11:00:11.344Z,101108.47
2022-10-19T11:03:12.214Z,101108.47
2022-10-19T11:05:46.003Z,101101.44
2022-10-19T11:08:12.449Z,101103.22
2022-10-19T11:11:02.058Z,101091.78
2022-10-19T11:13:39.296Z,101097.06
2022-10-19T11:16:19.371Z,101096.06
2022-10-19T11:18:51.999Z,101083.72
2022-10-19T11:21:21.411Z,101087.34
2022-10-19T11:24:14.449Z,101094.50
2022-10-19T11:26:50.831Z,101089.28
2022-10-19T11:29:24.227Z,101090.22
2022-10-19T11:31:56.998Z,101085.84
2022-10-19T11:34:37.011Z,101083.19
2022-10-19T11:37:12.298Z,101079.69
2022-10-19T11:39:57.703Z,101071.72
2022-10-19T11:42:36.239Z,101075.25
2022-10-19T11:45:22.240Z,101071.75
2022-10-19T11:48:15.041Z,101076.22
2022-10-19T11:50:54.140Z,101077.13
2022-10-19T11:53:31.910Z,101079.78
2022-10-19T11:56:07.341Z,101074.56
2022-10-19T11:58:45.575Z,101071.94
2022-10-19T12:01:17.414Z,101064.03
2022-10-19T12:03:53.521Z,101061.38
2022-10-19T12:06:29.078Z,101067.63
2022-10-19T12:09:14.348Z,101069.41
2022-10-19T12:11:59.034Z,101071.19
2022-10-19T12:14:27.083Z,101058.84
2022-10-19T12:16:56.798Z,101055.31
2022-10-19T12:19:29.130Z,101060.63
2022-10-19T12:22:00.090Z,101054.47
2022-10-19T12:24:27.154Z,101043.06
2022-10-19T12:26:54.224Z,101052.84
2022-10-19T12:29:28.188Z,101046.63
2022-10-19T12:31:55.296Z,101050.25
2022-10-19T12:34:33.813Z,101037.00
2022-10-19T12:37:20.486Z,101034.41
2022-10-19T12:40:31.631Z,101033.56
2022-10-19T12:43:12.371Z,101033.56
2022-10-19T12:45:39.779Z,101022.09
2022-10-19T12:48:10.922Z,101035.38
2022-10-19T12:50:49.606Z,101034.50
2022-10-19T12:53:30.918Z,101031.00
2022-10-19T12:56:00.500Z,101021.31
2022-10-19T12:58:27.051Z,101027.53
2022-10-19T13:01:00.736Z,101025.78
2022-10-19T13:03:38.259Z,101016.13
2022-10-19T13:06:13.556Z,101018.75
2022-10-19T13:08:46.738Z,101016.13
2022-10-19T13:11:15.255Z,101008.16
2022-10-19T13:13:53.239Z,101005.50
2022-10-19T13:16:28.855Z,101009.94
2022-10-19T13:19:14.435Z,101011.66
2022-10-19T13:22:07.404Z,101010.81
2022-10-19T13:24:35.576Z,101009.00
2022-10-19T13:27:02.035Z,100997.56
2022-10-19T13:29:48.740Z,101006.37
2022-10-19T13:32:36.479Z,101007.22
2022-10-19T13:35:22.310Z,101009.87
2022-10-19T13:38:31.082Z,101022.28
2022-10-19T13:41:25.562Z,101024.91
2022-10-19T13:43:54.618Z,101022.25
2022-10-19T13:46:30.378Z,101024.00
2022-10-19T13:49:27.904Z,101023.97
2022-10-19T13:52:05.739Z,101021.34
2022-10-19T13:55:02.972Z,101026.66
2022-10-19T13:58:02.675Z,101031.97
2022-10-19T14:00:47.899Z,101027.56
2022-10-19T14:03:37.640Z,101027.56
2022-10-19T14:06:28.514Z,101027.53
2022-10-19T14:09:16.938Z,101024.91
2022-10-19T14:11:44.489Z,101019.53
2022-10-19T14:14:10.901Z,101016.87
2022-10-19T14:16:56.092Z,101027.47
2022-10-19T14:19:32.875Z,101025.69
2022-10-19T14:22:00.912Z,101033.56
2022-10-19T14:24:29.688Z,101020.37
2022-10-19T14:26:57.119Z,101015.94
2022-10-19T14:29:23.715Z,101026.56
2022-10-19T14:31:50.344Z,101027.41
2022-10-19T14:34:17.052Z,101028.28
2022-10-19T14:36:45.296Z,101030.94
2022-10-19T14:39:35.259Z,101031.78
2022-10-19T14:42:05.863Z,101032.69
2022-10-19T14:44:42.583Z,101026.47
2022-10-19T14:47:18.010Z,101029.13
2022-10-19T14:49:44.786Z,101024.72
2022-10-19T14:52:12.908Z,101016.69
2022-10-19T14:54:41.729Z,101019.41
2022-10-19T14:57:17.519Z,101025.59
2022-10-19T14:59:50.259Z,100997.31
2022-10-19T15:02:25.771Z,101003.50
2022-10-19T15:04:53.325Z,101008.81
2022-10-19T15:07:30.447Z,101020.28
2022-10-19T15:09:58.422Z,101016.69
2022-10-19T15:12:39.088Z,101014.06
2022-10-19T15:15:25.200Z,101020.22
2022-10-19T15:18:01.950Z,101023.72
2022-10-19T15:20:43.869Z,101022.00
2022-10-19T15:23:43.735Z,101013.19
2022-10-19T15:26:26.413Z,101019.34
2022-10-19T15:28:53.865Z,101020.22
2022-10-19T15:31:24.224Z,101024.59
2022-10-19T15:33:58.545Z,101026.31
2022-10-19T15:36:25.129Z,101031.69
2022-10-19T15:39:25.058Z,101006.03
2022-10-19T15:42:36.177Z,100997.13
2022-10-19T15:45:04.378Z,101010.41
2022-10-19T15:47:31.326Z,101021.94
2022-10-19T15:50:00.022Z,101020.16
2022-10-19T15:52:32.291Z,101031.62
2022-10-19T15:54:59.352Z,101050.19
2022-10-19T15:57:36.851Z,101036.03
2022-10-19T16:00:14.878Z,101043.97
2022-10-19T16:02:41.554Z,101042.22
2022-10-19T16:05:08.218Z,101042.22
2022-10-19T16:07:36.739Z,101043.97
2022-10-19T16:10:03.555Z,101049.28
2022-10-19T16:12:30.367Z,101069.59
2022-10-19T16:14:56.899Z,101071.41
2022-10-19T16:17:23.461Z,101083.81
2022-10-19T16:19:53.557Z,101097.87
2022-10-19T16:22:20.254Z,101094.37
2022-10-19T16:24:46.823Z,101089.97
2022-10-19T16:27:15.244Z,101091.72
2022-10-19T16:29:43.113Z,101092.62
2022-10-19T16:32:09.682Z,101093.47
2022-10-19T16:34:36.319Z,101086.44
2022-10-19T16:37:05.949Z,101075.84
2022-10-19T16:39:33.793Z,101072.34
2022-10-19T16:42:00.470Z,101060.84
2022-10-19T16:44:27.078Z,101073.19
2022-10-19T16:46:56.184Z,101085.59
2022-10-19T16:49:24.308Z,101092.69
2022-10-19T16:51:53.254Z,101106.88
2022-10-19T16:54:23.138Z,101115.69
2022-10-19T16:56:49.845Z,101107.81
2022-10-19T16:59:17.862Z,101117.47
2022-10-19T17:01:44.954Z,101110.44
2022-10-19T17:04:12.197Z,101106.94
2022-10-19T17:06:38.874Z,101109.59
2022-10-19T17:11:52.349Z,101115.78
2022-10-19T17:14:18.987Z,101119.38
2022-10-19T17:16:45.630Z,101124.66
2022-10-19T17:19:12.527Z,101126.47
2022-10-19T17:21:39.332Z,101123.75
2022-10-19T17:24:07.587Z,101126.41
2022-10-19T17:26:39.253Z,101127.31
2022-10-19T17:29:05.998Z,101131.75
2022-10-19T17:31:32.590Z,101138.84
2022-10-19T17:34:00.665Z,101130.91
2022-10-19T17:36:28.760Z,101130.91
2022-10-19T17:38:58.967Z,101138.00
2022-10-19T17:41:25.719Z,101144.16
2022-10-19T17:43:52.674Z,101139.78
2022-10-19T17:46:24.064Z,101149.53
2022-10-19T17:48:50.652Z,101141.56
2022-10-19T17:51:19.016Z,101145.97
2022-10-19T17:53:46.530Z,101147.78
2022-10-19T17:56:15.000Z,101153.94
2022-10-19T17:58:41.620Z,101158.38
2022-10-19T18:01:08.244Z,101152.22
2022-10-19T18:03:35.047Z,101154.00
2022-10-19T18:06:18.658Z,101162.81
2022-10-19T18:08:47.390Z,101158.44
2022-10-19T18:11:25.098Z,101154.94
2022-10-19T18:13:52.152Z,101148.75
2022-10-19T18:16:24.314Z,101156.72
2022-10-19T18:18:51.877Z,101164.66
2022-10-19T18:21:20.556Z,101184.09
2022-10-19T18:23:47.211Z,101185.03
2022-10-19T18:26:19.606Z,101184.16
2022-10-19T18:28:46.482Z,101193.00
2022-10-19T18:31:14.627Z,101193.00
2022-10-19T18:33:41.270Z,101196.53
2022-10-19T18:36:08.680Z,101188.63
2022-10-19T18:38:35.235Z,101185.13
2022-10-19T18:41:02.890Z,101194.00
2022-10-19T18:43:29.356Z,101187.81
2022-10-19T18:45:56.064Z,101186.06
2022-10-19T18:48:22.453Z,101191.38
2022-10-19T18:50:48.978Z,101203.75
2022-10-19T18:53:15.409Z,101201.97
2022-10-19T18:55:41.985Z,101200.25
2022-10-19T18:58:08.664Z,101217.94
2022-10-19T19:00:35.208Z,101223.25
2022-10-19T19:03:01.589Z,101222.38
2022-10-19T19:05:27.983Z,101219.78
2022-10-19T19:07:56.027Z,101238.34
2022-10-19T19:10:22.419Z,101244.53
2022-10-19T19:12:49.251Z,101233.06
2022-10-19T19:15:15.636Z,101232.19
2022-10-19T19:17:42.018Z,101242.78
2022-10-19T19:20:08.561Z,101230.44
2022-10-19T19:22:35.157Z,101229.56
2022-10-19T19:25:01.802Z,101229.56
2022-10-19T19:27:31.620Z,101228.69
2022-10-19T19:29:58.614Z,101217.25
2022-10-19T19:32:25.025Z,101231.41
2022-10-19T19:34:54.700Z,101227.84
2022-10-19T19:37:21.390Z,101229.69
2022-10-19T19:39:47.778Z,101230.56
2022-10-19T19:42:14.194Z,101228.81
2022-10-19T19:44:40.596Z,101245.59
2022-10-19T19:47:08.228Z,101256.19
2022-10-19T19:49:34.648Z,101263.28
2022-10-19T19:52:01.056Z,101265.03
2022-10-19T19:54:27.503Z,101261.50
2022-10-19T19:56:53.993Z,101257.16
2022-10-19T19:59:20.446Z,101258.00
2022-10-19T20:01:47.000Z,101257.16
2022-10-19T20:04:13.476Z,101264.19
2022-10-19T20:06:40.142Z,101260.66
2022-10-19T20:09:06.824Z,101268.63
2022-10-19T20:11:33.988Z,101272.19
2022-10-19T20:14:02.459Z,101272.19
2022-10-19T20:16:29.842Z,101278.34
2022-10-19T20:18:58.629Z,101276.63
2022-10-19T20:21:25.787Z,101281.94
2022-10-19T20:23:52.286Z,101286.38
2022-10-19T20:26:19.306Z,101283.72
2022-10-19T20:28:45.743Z,101290.81
2022-10-19T20:31:12.364Z,101299.62
2022-10-19T20:33:39.134Z,101301.41
2022-10-19T20:36:06.659Z,101295.25
2022-10-19T20:38:33.620Z,101305.88
2022-10-19T20:41:04.230Z,101309.41
2022-10-19T20:43:33.508Z,101308.53
2022-10-19T20:46:06.431Z,101307.66
2022-10-19T20:48:32.864Z,101313.88
2022-10-19T20:51:12.353Z,101305.06
2022-10-19T20:53:38.879Z,101308.59
2022-10-19T20:56:05.951Z,101310.38
2022-10-19T20:58:32.623Z,101314.81
2022-10-19T21:01:04.540Z,101320.12
2022-10-19T21:03:30.925Z,101317.47
2022-10-19T21:05:57.315Z,101317.47
2022-10-19T21:08:23.731Z,101321.03
2022-10-19T21:10:50.136Z,101326.31
2022-10-19T21:13:16.519Z,101319.28
2022-10-19T21:15:42.923Z,101324.59
2022-10-19T21:18:09.295Z,101320.22
2022-10-19T21:20:35.696Z,101335.19
2022-10-19T21:23:02.091Z,101334.34
2022-10-19T21:25:30.408Z,101330.81
2022-10-19T21:27:56.819Z,101319.34
2022-10-19T21:30:23.221Z,101319.34
2022-10-19T21:32:49.607Z,101331.75
2022-10-19T21:35:16.030Z,101332.63
2022-10-19T21:37:42.411Z,101329.97
2022-10-19T21:40:09.104Z,101337.06
2022-10-19T21:42:35.510Z,101330.91
2022-10-19T21:45:25.144Z,101337.94
2022-10-19T21:47:48.332Z,101333.56
2022-10-19T21:50:17.357Z,101338.91
2022-10-19T21:52:43.731Z,101339.78
2022-10-19T21:55:10.213Z,101343.34
2022-10-19T21:57:37.037Z,101348.66
2022-10-19T22:00:04.092Z,101344.22
2022-10-19T22:02:30.490Z,101355.75
2022-10-19T22:04:58.035Z,101348.66
2022-10-19T22:07:24.441Z,101345.16
2022-10-19T22:09:50.971Z,101349.59
2022-10-19T22:12:17.364Z,101349.66
2022-10-19T22:14:45.382Z,101344.34
2022-10-19T22:17:11.807Z,101343.47
2022-10-19T22:19:38.264Z,101343.47
2022-10-19T22:22:04.639Z,101346.13
2022-10-19T22:24:31.035Z,101342.63
2022-10-19T22:26:57.438Z,101340.84
2022-10-19T22:29:23.832Z,101342.63
2022-10-19T22:31:50.219Z,101335.56
2022-10-19T22:34:16.941Z,101336.44
2022-10-19T22:36:43.675Z,101330.25
2022-10-19T22:39:10.184Z,101327.66
2022-10-19T22:42:14.349Z,101330.38
2022-10-19T22:44:40.721Z,101327.72
2022-10-19T22:47:07.138Z,101338.31
2022-10-19T22:49:33.549Z,101334.81
2022-10-19T22:52:02.353Z,101333.03
2022-10-19T22:54:28.813Z,101340.12
2022-10-19T22:56:55.193Z,101340.12
2022-10-19T22:59:21.688Z,101336.66
2022-10-19T23:01:48.149Z,101344.63
2022-10-19T23:04:14.629Z,101336.66
2022-10-19T23:06:41.009Z,101337.53
2022-10-19T23:09:07.383Z,101334.94
2022-10-19T23:11:33.779Z,101342.88
2022-10-19T23:14:00.231Z,101342.91
2022-10-19T23:18:57.998Z,101350.00
2022-10-19T23:21:24.389Z,101358.87
2022-10-19T23:23:50.773Z,101364.16
2022-10-19T23:26:17.939Z,101370.38
2022-10-19T23:28:44.602Z,101366.00
2022-10-19T23:31:12.035Z,101370.38
2022-10-19T23:33:38.464Z,101371.31
2022-10-19T23:36:16.538Z,101370.44
2022-10-19T23:38:43.393Z,101375.75
2022-10-19T23:41:09.856Z,101374.84
2022-10-19T23:46:07.558Z,101373.16
2022-10-19T23:48:34.563Z,101374.91
2022-10-19T23:51:01.923Z,101374.94
2022-10-19T23:53:28.349Z,101372.31
2022-10-19T23:55:58.435Z,101379.41
2022-10-19T23:58:24.823Z,101386.50
